sensor_id;sensor_type;location;lat;lon;timestamp;pressure;altitude;pressure_sealevel;temperature;humidity
61963;BME280;47927;42.646;23.096;2023-08-17T00:01:34;92271.66;;;20.38;61.39
61963;BME280;47927;42.646;23.096;2023-08-17T00:04:00;92284.91;;;20.22;62.21
61963;BME280;47927;42.646;23.096;2023-08-17T00:06:26;92285.72;;;20.19;62.01
61963;BME280;47927;42.646;23.096;2023-08-17T00:08:51;92282.78;;;20.17;61.91
61963;BME280;47927;42.646;23.096;2023-08-17T00:11:17;92279.88;;;20.11;62.05
61963;BME280;47927;42.646;23.096;2023-08-17T00:13:42;92278.09;;;20.08;62.65
61963;BME280;47927;42.646;23.096;2023-08-17T00:16:08;92284.59;;;20.03;62.69
61963;BME280;47927;42.646;23.096;2023-08-17T00:18:34;92275.44;;;20.08;63.39
61963;BME280;47927;42.646;23.096;2023-08-17T00:20:59;92286.31;;;20.10;64.46
61963;BME280;47927;42.646;23.096;2023-08-17T00:23:25;92285.72;;;20.19;64.62
61963;BME280;47927;42.646;23.096;2023-08-17T00:25:50;92284.78;;;19.96;64.85
61963;BME280;47927;42.646;23.096;2023-08-17T00:28:16;92279.66;;;20.06;64.06
61963;BME280;47927;42.646;23.096;2023-08-17T00:30:42;92285.25;;;20.08;63.87
61963;BME280;47927;42.646;23.096;2023-08-17T00:33:08;92273.03;;;20.14;63.75
61963;BME280;47927;42.646;23.096;2023-08-17T00:35:33;92283.81;;;20.19;64.03
61963;BME280;47927;42.646;23.096;2023-08-17T00:37:59;92284.50;;;20.23;63.46
61963;BME280;47927;42.646;23.096;2023-08-17T00:40:25;92286.16;;;20.01;65.00
61963;BME280;47927;42.646;23.096;2023-08-17T00:42:51;92285.78;;;19.70;67.17
61963;BME280;47927;42.646;23.096;2023-08-17T00:45:18;92278.84;;;19.76;66.70
61963;BME280;47927;42.646;23.096;2023-08-17T00:47:44;92284.59;;;20.03;64.31
61963;BME280;47927;42.646;23.096;2023-08-17T00:50:11;92292.47;;;19.74;67.13
61963;BME280;47927;42.646;23.096;2023-08-17T00:52:37;92295.66;;;19.49;69.08
61963;BME280;47927;42.646;23.096;2023-08-17T00:55:04;92291.56;;;19.65;68.65
61963;BME280;47927;42.646;23.096;2023-08-17T00:57:31;92291.56;;;19.97;65.36
61963;BME280;47927;42.646;23.096;2023-08-17T00:59:58;92282.53;;;20.11;64.29
61963;BME280;47927;42.646;23.096;2023-08-17T01:02:24;92288.06;;;20.17;63.63
61963;BME280;47927;42.646;23.096;2023-08-17T01:04:50;92286.72;;;20.25;63.56
61963;BME280;47927;42.646;23.096;2023-08-17T01:07:16;92279.13;;;20.11;64.14
61963;BME280;47927;42.646;23.096;2023-08-17T01:09:41;92275.69;;;20.14;63.72
61963;BME280;47927;42.646;23.096;2023-08-17T01:12:18;92272.09;;;20.20;62.84
61963;BME280;47927;42.646;23.096;2023-08-17T01:15:08;92278.38;;;20.26;61.88
61963;BME280;47927;42.646;23.096;2023-08-17T01:17:51;92279.97;;;20.08;62.83
61963;BME280;47927;42.646;23.096;2023-08-17T01:20:19;92278.97;;;20.01;63.33
61963;BME280;47927;42.646;23.096;2023-08-17T01:22:45;92273.69;;;20.01;62.12
61963;BME280;47927;42.646;23.096;2023-08-17T01:25:13;92267.41;;;19.95;62.28
61963;BME280;47927;42.646;23.096;2023-08-17T01:27:40;92267.41;;;19.95;62.08
61963;BME280;47927;42.646;23.096;2023-08-17T01:30:07;92283.22;;;19.83;62.39
61963;BME280;47927;42.646;23.096;2023-08-17T01:32:44;92270.00;;;19.83;61.85
61963;BME280;47927;42.646;23.096;2023-08-17T01:35:54;92266.56;;;19.69;61.98
61963;BME280;47927;42.646;23.096;2023-08-17T01:38:25;92271.97;;;19.62;62.22
61963;BME280;47927;42.646;23.096;2023-08-17T01:40:52;92259.22;;;19.57;61.86
61963;BME280;47927;42.646;23.096;2023-08-17T01:43:19;92268.97;;;19.60;61.55
61963;BME280;47927;42.646;23.096;2023-08-17T01:45:45;92273.22;;;19.57;61.29
61963;BME280;47927;42.646;23.096;2023-08-17T01:48:11;92273.44;;;19.47;60.99
61963;BME280;47927;42.646;23.096;2023-08-17T01:50:36;92276.81;;;19.47;60.99
61963;BME280;47927;42.646;23.096;2023-08-17T01:53:02;92276.56;;;19.42;61.19
61963;BME280;47927;42.646;23.096;2023-08-17T01:55:27;92280.13;;;19.35;60.95
61963;BME280;47927;42.646;23.096;2023-08-17T01:57:53;92279.13;;;19.29;61.35
61963;BME280;47927;42.646;23.096;2023-08-17T02:00:19;92271.59;;;19.27;60.81
61963;BME280;47927;42.646;23.096;2023-08-17T02:02:44;92272.03;;;19.26;60.73
61963;BME280;47927;42.646;23.096;2023-08-17T02:05:10;92269.78;;;19.24;60.62
61963;BME280;47927;42.646;23.096;2023-08-17T02:07:36;92260.38;;;19.07;60.62
61963;BME280;47927;42.646;23.096;2023-08-17T02:10:02;92268.22;;;19.10;60.81
61963;BME280;47927;42.646;23.096;2023-08-17T02:12:28;92253.41;;;18.97;60.72
61963;BME280;47927;42.646;23.096;2023-08-17T02:14:53;92261.66;;;18.99;60.80
61963;BME280;47927;42.646;23.096;2023-08-17T02:17:19;92264.78;;;18.94;60.85
61963;BME280;47927;42.646;23.096;2023-08-17T02:19:47;92261.59;;;18.82;60.94
61963;BME280;47927;42.646;23.096;2023-08-17T02:22:14;92260.88;;;18.82;61.17
61963;BME280;47927;42.646;23.096;2023-08-17T02:24:39;92270.75;;;18.78;60.79
61963;BME280;47927;42.646;23.096;2023-08-17T02:27:06;92268.19;;;18.74;61.23
61963;BME280;47927;42.646;23.096;2023-08-17T02:29:32;92264.84;;;18.70;60.98
61963;BME280;47927;42.646;23.096;2023-08-17T02:31:58;92265.34;;;18.65;61.38
61963;BME280;47927;42.646;23.096;2023-08-17T02:34:25;92265.34;;;18.65;61.04
61963;BME280;47927;42.646;23.096;2023-08-17T02:36:51;92256.34;;;18.42;62.20
61963;BME280;47927;42.646;23.096;2023-08-17T02:39:16;92261.88;;;18.48;61.77
61963;BME280;47927;42.646;23.096;2023-08-17T02:41:42;92254.31;;;18.50;61.60
61963;BME280;47927;42.646;23.096;2023-08-17T02:44:10;92253.03;;;18.38;61.42
61963;BME280;47927;42.646;23.096;2023-08-17T02:46:36;92253.34;;;18.20;62.79
61963;BME280;47927;42.646;23.096;2023-08-17T02:49:01;92251.03;;;18.22;62.49
61963;BME280;47927;42.646;23.096;2023-08-17T02:51:27;92249.34;;;18.12;62.65
61963;BME280;47927;42.646;23.096;2023-08-17T02:53:52;92250.44;;;18.15;62.14
61963;BME280;47927;42.646;23.096;2023-08-17T02:56:18;92252.81;;;18.09;62.18
61963;BME280;47927;42.646;23.096;2023-08-17T02:58:43;92247.78;;;17.95;63.73
61963;BME280;47927;42.646;23.096;2023-08-17T03:01:09;92249.47;;;18.05;63.04
61963;BME280;47927;42.646;23.096;2023-08-17T03:03:34;92258.53;;;18.04;63.11
61963;BME280;47927;42.646;23.096;2023-08-17T03:06:02;92257.72;;;18.07;62.36
61963;BME280;47927;42.646;23.096;2023-08-17T03:08:27;92263.94;;;17.97;62.15
61963;BME280;47927;42.646;23.096;2023-08-17T03:10:53;92262.41;;;17.49;66.45
61963;BME280;47927;42.646;23.096;2023-08-17T03:13:19;92248.56;;;17.68;63.65
61963;BME280;47927;42.646;23.096;2023-08-17T03:15:44;92262.97;;;17.60;65.33
61963;BME280;47927;42.646;23.096;2023-08-17T03:20:55;92258.16;;;17.82;63.57
61963;BME280;47927;42.646;23.096;2023-08-17T03:23:21;92256.63;;;17.85;63.58
61963;BME280;47927;42.646;23.096;2023-08-17T03:25:51;92259.56;;;17.87;63.41
61963;BME280;47927;42.646;23.096;2023-08-17T03:28:17;92261.59;;;17.75;63.58
61963;BME280;47927;42.646;23.096;2023-08-17T03:30:43;92257.75;;;17.84;62.97
61963;BME280;47927;42.646;23.096;2023-08-17T03:33:10;92261.13;;;17.84;62.30
61963;BME280;47927;42.646;23.096;2023-08-17T03:35:35;92249.72;;;17.91;61.96
61963;BME280;47927;42.646;23.096;2023-08-17T03:38:01;92265.28;;;17.82;62.88
61963;BME280;47927;42.646;23.096;2023-08-17T03:40:27;92267.84;;;17.89;62.42
61963;BME280;47927;42.646;23.096;2023-08-17T03:42:52;92263.31;;;17.89;62.45
61963;BME280;47927;42.646;23.096;2023-08-17T03:45:18;92268.69;;;17.82;62.31
61963;BME280;47927;42.646;23.096;2023-08-17T03:47:44;92267.09;;;17.88;62.27
61963;BME280;47927;42.646;23.096;2023-08-17T03:50:09;92268.59;;;17.62;63.99
61963;BME280;47927;42.646;23.096;2023-08-17T03:52:35;92268.03;;;17.74;63.00
61963;BME280;47927;42.646;23.096;2023-08-17T03:55:01;92268.56;;;17.39;64.30
61963;BME280;47927;42.646;23.096;2023-08-17T03:57:27;92270.72;;;17.71;63.51
61963;BME280;47927;42.646;23.096;2023-08-17T03:59:52;92270.69;;;17.98;63.83
61963;BME280;47927;42.646;23.096;2023-08-17T04:02:18;92273.44;;;18.94;61.27
61963;BME280;47927;42.646;23.096;2023-08-17T04:04:43;92273.06;;;19.81;60.12
61963;BME280;47927;42.646;23.096;2023-08-17T04:07:09;92273.22;;;21.07;56.09
61963;BME280;47927;42.646;23.096;2023-08-17T04:09:34;92281.84;;;22.10;53.74
61963;BME280;47927;42.646;23.096;2023-08-17T04:12:00;92282.53;;;23.02;52.31
61963;BME280;47927;42.646;23.096;2023-08-17T04:14:26;92287.47;;;23.75;49.41
61963;BME280;47927;42.646;23.096;2023-08-17T04:16:52;92281.66;;;24.53;47.54
61963;BME280;47927;42.646;23.096;2023-08-17T04:19:18;92286.03;;;25.21;46.86
61963;BME280;47927;42.646;23.096;2023-08-17T04:21:44;92286.03;;;26.21;45.25
61963;BME280;47927;42.646;23.096;2023-08-17T04:24:09;92289.19;;;26.58;42.86
61963;BME280;47927;42.646;23.096;2023-08-17T04:26:35;92287.19;;;27.12;42.36
61963;BME280;47927;42.646;23.096;2023-08-17T04:29:00;92287.03;;;27.31;41.07
61963;BME280;47927;42.646;23.096;2023-08-17T04:31:27;92288.59;;;27.52;40.75
61963;BME280;47927;42.646;23.096;2023-08-17T04:33:58;92293.94;;;28.02;39.85
61963;BME280;47927;42.646;23.096;2023-08-17T04:36:23;92294.94;;;28.05;39.55
61963;BME280;47927;42.646;23.096;2023-08-17T04:38:49;92289.53;;;27.49;41.83
61963;BME280;47927;42.646;23.096;2023-08-17T04:41:14;92281.03;;;27.36;43.62
61963;BME280;47927;42.646;23.096;2023-08-17T04:43:40;92282.72;;;27.18;43.07
61963;BME280;47927;42.646;23.096;2023-08-17T04:46:06;92278.28;;;27.15;43.40
61963;BME280;47927;42.646;23.096;2023-08-17T04:48:32;92274.63;;;27.63;42.50
61963;BME280;47927;42.646;23.096;2023-08-17T04:50:57;92287.97;;;27.92;41.14
61963;BME280;47927;42.646;23.096;2023-08-17T04:53:23;92281.47;;;28.40;40.45
61963;BME280;47927;42.646;23.096;2023-08-17T04:55:49;92282.16;;;28.55;40.37
61963;BME280;47927;42.646;23.096;2023-08-17T04:58:14;92279.53;;;29.07;39.05
61963;BME280;47927;42.646;23.096;2023-08-17T05:00:40;92281.84;;;29.52;38.93
61963;BME280;47927;42.646;23.096;2023-08-17T05:03:06;92283.44;;;30.13;37.59
61963;BME280;47927;42.646;23.096;2023-08-17T05:05:36;92286.00;;;31.16;36.19
61963;BME280;47927;42.646;23.096;2023-08-17T05:08:06;92286.13;;;32.47;33.15
61963;BME280;47927;42.646;23.096;2023-08-17T05:10:32;92295.69;;;33.97;31.00
61963;BME280;47927;42.646;23.096;2023-08-17T05:12:58;92290.31;;;35.54;28.67
61963;BME280;47927;42.646;23.096;2023-08-17T05:15:23;92285.97;;;36.36;27.12
61963;BME280;47927;42.646;23.096;2023-08-17T05:17:49;92289.91;;;36.62;27.55
61963;BME280;47927;42.646;23.096;2023-08-17T05:20:16;92293.22;;;37.92;25.72
61963;BME280;47927;42.646;23.096;2023-08-17T05:22:42;92292.06;;;38.73;24.53
61963;BME280;47927;42.646;23.096;2023-08-17T05:25:08;92297.50;;;39.09;24.12
61963;BME280;47927;42.646;23.096;2023-08-17T05:27:36;92286.50;;;39.53;23.28
61963;BME280;47927;42.646;23.096;2023-08-17T05:30:02;92292.53;;;40.05;22.33
61963;BME280;47927;42.646;23.096;2023-08-17T05:32:27;92292.88;;;40.40;22.06
61963;BME280;47927;42.646;23.096;2023-08-17T05:34:53;92298.13;;;40.46;22.23
61963;BME280;47927;42.646;23.096;2023-08-17T05:37:19;92300.13;;;41.09;20.77
61963;BME280;47927;42.646;23.096;2023-08-17T05:39:45;92298.41;;;42.04;19.72
61963;BME280;47927;42.646;23.096;2023-08-17T05:42:10;92303.88;;;42.46;18.76
61963;BME280;47927;42.646;23.096;2023-08-17T05:44:36;92307.28;;;42.72;19.19
61963;BME280;47927;42.646;23.096;2023-08-17T05:47:02;92309.09;;;43.31;18.42
61963;BME280;47927;42.646;23.096;2023-08-17T05:49:27;92305.81;;;43.60;18.06
61963;BME280;47927;42.646;23.096;2023-08-17T05:51:53;92313.78;;;43.38;18.92
61963;BME280;47927;42.646;23.096;2023-08-17T05:54:18;92305.56;;;43.75;18.79
61963;BME280;47927;42.646;23.096;2023-08-17T05:56:44;92311.50;;;44.18;17.94
61963;BME280;47927;42.646;23.096;2023-08-17T05:59:12;92306.66;;;44.75;17.62
61963;BME280;47927;42.646;23.096;2023-08-17T06:01:38;92311.56;;;44.67;17.52
61963;BME280;47927;42.646;23.096;2023-08-17T06:04:04;92306.50;;;44.92;17.19
61963;BME280;47927;42.646;23.096;2023-08-17T06:06:30;92314.28;;;45.06;16.26
61963;BME280;47927;42.646;23.096;2023-08-17T06:08:56;92315.59;;;44.95;17.22
61963;BME280;47927;42.646;23.096;2023-08-17T06:11:21;92312.41;;;44.50;16.66
61963;BME280;47927;42.646;23.096;2023-08-17T06:13:48;92312.00;;;45.02;16.41
61963;BME280;47927;42.646;23.096;2023-08-17T06:16:13;92310.69;;;45.22;16.09
61963;BME280;47927;42.646;23.096;2023-08-17T06:18:39;92308.34;;;45.79;16.50
61963;BME280;47927;42.646;23.096;2023-08-17T06:21:04;92307.06;;;46.54;14.88
61963;BME280;47927;42.646;23.096;2023-08-17T06:23:30;92310.69;;;47.23;13.87
61963;BME280;47927;42.646;23.096;2023-08-17T06:25:57;92314.16;;;47.69;13.31
61963;BME280;47927;42.646;23.096;2023-08-17T06:28:24;92315.13;;;48.32;12.64
61963;BME280;47927;42.646;23.096;2023-08-17T06:30:56;92308.75;;;48.06;12.53
61963;BME280;47927;42.646;23.096;2023-08-17T06:33:22;92311.13;;;47.41;13.72
61963;BME280;47927;42.646;23.096;2023-08-17T06:35:49;92315.44;;;47.44;13.11
61963;BME280;47927;42.646;23.096;2023-08-17T06:38:15;92323.88;;;48.52;13.10
61963;BME280;47927;42.646;23.096;2023-08-17T06:40:41;92321.63;;;48.74;12.24
61963;BME280;47927;42.646;23.096;2023-08-17T06:43:07;92316.69;;;48.00;12.33
61963;BME280;47927;42.646;23.096;2023-08-17T06:45:32;92332.03;;;47.68;12.64
61963;BME280;47927;42.646;23.096;2023-08-17T06:47:58;92326.97;;;46.74;12.81
61963;BME280;47927;42.646;23.096;2023-08-17T06:50:24;92325.41;;;45.87;13.25
61963;BME280;47927;42.646;23.096;2023-08-17T06:52:50;92325.00;;;45.21;13.60
61963;BME280;47927;42.646;23.096;2023-08-17T06:55:15;92331.38;;;45.04;13.93
61963;BME280;47927;42.646;23.096;2023-08-17T06:57:42;92327.16;;;44.45;14.11
61963;BME280;47927;42.646;23.096;2023-08-17T07:00:08;92319.22;;;43.29;15.72
61963;BME280;47927;42.646;23.096;2023-08-17T07:02:33;92322.16;;;44.14;15.41
61963;BME280;47927;42.646;23.096;2023-08-17T07:05:02;92319.38;;;44.90;13.98
61963;BME280;47927;42.646;23.096;2023-08-17T07:07:30;92316.25;;;42.99;15.72
61963;BME280;47927;42.646;23.096;2023-08-17T07:09:59;92314.66;;;41.77;16.61
61963;BME280;47927;42.646;23.096;2023-08-17T07:12:24;92323.47;;;43.22;15.75
61963;BME280;47927;42.646;23.096;2023-08-17T07:14:50;92320.56;;;42.93;16.02
61963;BME280;47927;42.646;23.096;2023-08-17T07:17:15;92309.28;;;41.86;16.19
61963;BME280;47927;42.646;23.096;2023-08-17T07:19:41;92312.13;;;43.26;15.36
61963;BME280;47927;42.646;23.096;2023-08-17T07:22:07;92316.16;;;43.07;16.29
61963;BME280;47927;42.646;23.096;2023-08-17T07:24:32;92312.97;;;43.82;14.75
61963;BME280;47927;42.646;23.096;2023-08-17T07:26:58;92314.78;;;41.86;17.13
61963;BME280;47927;42.646;23.096;2023-08-17T07:29:23;92309.09;;;41.92;16.77
61963;BME280;47927;42.646;23.096;2023-08-17T07:31:49;92313.84;;;42.34;16.41
61963;BME280;47927;42.646;23.096;2023-08-17T07:34:14;92320.13;;;42.62;15.96
61963;BME280;47927;42.646;23.096;2023-08-17T07:36:40;92312.50;;;44.23;15.63
61963;BME280;47927;42.646;23.096;2023-08-17T07:39:06;92309.59;;;45.88;13.49
61963;BME280;47927;42.646;23.096;2023-08-17T07:41:32;92318.88;;;45.52;14.44
61963;BME280;47927;42.646;23.096;2023-08-17T07:43:58;92312.03;;;46.46;13.24
61963;BME280;47927;42.646;23.096;2023-08-17T07:46:23;92315.88;;;45.18;14.27
61963;BME280;47927;42.646;23.096;2023-08-17T07:48:49;92308.81;;;44.57;14.47
61963;BME280;47927;42.646;23.096;2023-08-17T07:51:14;92312.72;;;44.93;13.50
61963;BME280;47927;42.646;23.096;2023-08-17T07:53:40;92321.31;;;45.57;14.03
61963;BME280;47927;42.646;23.096;2023-08-17T07:56:05;92310.69;;;45.22;14.42
61963;BME280;47927;42.646;23.096;2023-08-17T07:58:31;92312.63;;;43.41;15.12
61963;BME280;47927;42.646;23.096;2023-08-17T08:00:57;92312.75;;;44.07;14.68
61963;BME280;47927;42.646;23.096;2023-08-17T08:03:22;92314.44;;;44.49;13.63
61963;BME280;47927;42.646;23.096;2023-08-17T08:05:48;92304.34;;;43.96;14.28
61963;BME280;47927;42.646;23.096;2023-08-17T08:08:13;92305.28;;;44.18;14.35
61963;BME280;47927;42.646;23.096;2023-08-17T08:10:40;92307.06;;;44.62;13.77
61963;BME280;47927;42.646;23.096;2023-08-17T08:13:06;92303.34;;;43.37;14.53
61963;BME280;47927;42.646;23.096;2023-08-17T08:15:33;92305.66;;;43.95;15.31
61963;BME280;47927;42.646;23.096;2023-08-17T08:17:58;92299.25;;;44.97;13.11
61963;BME280;47927;42.646;23.096;2023-08-17T08:20:24;92304.78;;;43.55;14.04
61963;BME280;47927;42.646;23.096;2023-08-17T08:22:49;92298.50;;;44.28;14.40
61963;BME280;47927;42.646;23.096;2023-08-17T08:25:15;92284.75;;;44.09;14.24
61963;BME280;47927;42.646;23.096;2023-08-17T08:27:40;92305.03;;;43.86;13.75
61963;BME280;47927;42.646;23.096;2023-08-17T08:30:06;92298.75;;;42.25;15.07
61963;BME280;47927;42.646;23.096;2023-08-17T08:32:32;92297.19;;;42.57;14.92
61963;BME280;47927;42.646;23.096;2023-08-17T08:34:58;92289.00;;;44.49;14.03
61963;BME280;47927;42.646;23.096;2023-08-17T08:37:23;92294.06;;;44.43;13.42
61963;BME280;47927;42.646;23.096;2023-08-17T08:39:53;92298.72;;;43.12;15.46
61963;BME280;47927;42.646;23.096;2023-08-17T08:42:20;92303.63;;;42.34;15.24
61963;BME280;47927;42.646;23.096;2023-08-17T08:44:46;92291.44;;;42.63;15.40
61963;BME280;47927;42.646;23.096;2023-08-17T08:47:12;92290.50;;;42.85;14.83
61963;BME280;47927;42.646;23.096;2023-08-17T08:49:39;92293.44;;;44.15;14.43
61963;BME280;47927;42.646;23.096;2023-08-17T08:52:07;92304.19;;;42.50;15.39
61963;BME280;47927;42.646;23.096;2023-08-17T08:54:33;92290.91;;;41.29;16.93
61963;BME280;47927;42.646;23.096;2023-08-17T08:57:03;92284.31;;;41.90;16.03
61963;BME280;47927;42.646;23.096;2023-08-17T08:59:30;92290.28;;;42.14;15.97
61963;BME280;47927;42.646;23.096;2023-08-17T09:01:57;92278.47;;;41.86;15.67
61963;BME280;47927;42.646;23.096;2023-08-17T09:04:23;92276.22;;;41.42;16.16
61963;BME280;47927;42.646;23.096;2023-08-17T09:06:50;92278.34;;;39.61;18.11
61963;BME280;47927;42.646;23.096;2023-08-17T09:09:18;92279.78;;;38.43;18.99
61963;BME280;47927;42.646;23.096;2023-08-17T09:11:43;92267.94;;;38.69;18.81
61963;BME280;47927;42.646;23.096;2023-08-17T09:14:09;92269.97;;;39.36;18.82
61963;BME280;47927;42.646;23.096;2023-08-17T09:16:35;92264.22;;;41.12;17.18
61963;BME280;47927;42.646;23.096;2023-08-17T09:19:00;92262.44;;;42.60;15.60
61963;BME280;47927;42.646;23.096;2023-08-17T09:21:31;92265.53;;;41.86;16.31
61963;BME280;47927;42.646;23.096;2023-08-17T09:23:57;92263.81;;;42.16;16.54
61963;BME280;47927;42.646;23.096;2023-08-17T09:26:23;92260.84;;;41.54;16.77
61963;BME280;47927;42.646;23.096;2023-08-17T09:28:52;92255.69;;;41.00;17.33
61963;BME280;47927;42.646;23.096;2023-08-17T09:31:20;92255.97;;;40.80;17.03
61963;BME280;47927;42.646;23.096;2023-08-17T09:33:48;92260.44;;;38.98;18.60
61963;BME280;47927;42.646;23.096;2023-08-17T09:36:14;92265.53;;;37.72;19.80
61963;BME280;47927;42.646;23.096;2023-08-17T09:38:40;92251.06;;;37.77;20.01
61963;BME280;47927;42.646;23.096;2023-08-17T09:41:06;92253.25;;;36.82;20.44
61963;BME280;47927;42.646;23.096;2023-08-17T09:43:32;92253.63;;;36.52;21.22
61963;BME280;47927;42.646;23.096;2023-08-17T09:45:59;92254.13;;;35.97;22.97
61963;BME280;47927;42.646;23.096;2023-08-17T09:48:27;92242.03;;;35.85;21.85
61963;BME280;47927;42.646;23.096;2023-08-17T09:50:56;92240.72;;;36.79;21.67
61963;BME280;47927;42.646;23.096;2023-08-17T09:53:22;92240.66;;;36.58;21.11
61963;BME280;47927;42.646;23.096;2023-08-17T09:55:47;92245.03;;;36.74;21.99
61963;BME280;47927;42.646;23.096;2023-08-17T09:58:13;92245.59;;;36.33;21.49
61963;BME280;47927;42.646;23.096;2023-08-17T10:00:47;92253.75;;;35.60;22.11
61963;BME280;47927;42.646;23.096;2023-08-17T10:03:14;92236.13;;;36.13;21.78
61963;BME280;47927;42.646;23.096;2023-08-17T10:05:42;92254.63;;;36.62;22.03
61963;BME280;47927;42.646;23.096;2023-08-17T10:08:10;92236.97;;;34.98;22.95
61963;BME280;47927;42.646;23.096;2023-08-17T10:10:40;92238.28;;;36.14;22.24
61963;BME280;47927;42.646;23.096;2023-08-17T10:13:28;92254.09;;;37.11;20.94
61963;BME280;47927;42.646;23.096;2023-08-17T10:21:23;92231.88;;;37.54;20.75
61963;BME280;47927;42.646;23.096;2023-08-17T10:23:51;92231.72;;;38.10;20.21
61963;BME280;47927;42.646;23.096;2023-08-17T10:26:17;92233.88;;;38.40;19.36
61963;BME280;47927;42.646;23.096;2023-08-17T10:28:44;92231.06;;;38.24;19.37
61963;BME280;47927;42.646;23.096;2023-08-17T10:31:11;92237.91;;;37.60;20.04
61963;BME280;47927;42.646;23.096;2023-08-17T10:33:37;92226.78;;;36.61;20.18
61963;BME280;47927;42.646;23.096;2023-08-17T10:36:03;92229.53;;;37.16;20.14
61963;BME280;47927;42.646;23.096;2023-08-17T10:38:30;92217.34;;;35.43;21.67
61963;BME280;47927;42.646;23.096;2023-08-17T10:41:22;92225.38;;;34.65;22.57
61963;BME280;47927;42.646;23.096;2023-08-17T10:43:58;92218.22;;;34.86;23.12
61963;BME280;47927;42.646;23.096;2023-08-17T10:46:37;92210.56;;;36.21;22.18
61963;BME280;47927;42.646;23.096;2023-08-17T10:49:05;92209.72;;;37.08;20.64
61963;BME280;47927;42.646;23.096;2023-08-17T10:51:32;92199.31;;;37.62;19.57
61963;BME280;47927;42.646;23.096;2023-08-17T10:54:04;92213.88;;;36.27;19.82
61963;BME280;47927;42.646;23.096;2023-08-17T10:56:30;92207.13;;;35.49;21.88
61963;BME280;47927;42.646;23.096;2023-08-17T10:59:00;92212.31;;;35.79;21.23
61963;BME280;47927;42.646;23.096;2023-08-17T11:04:12;92198.53;;;37.54;20.28
61963;BME280;47927;42.646;23.096;2023-08-17T11:06:43;92208.91;;;37.21;19.76
61963;BME280;47927;42.646;23.096;2023-08-17T11:09:09;92193.03;;;37.46;19.94
61963;BME280;47927;42.646;23.096;2023-08-17T11:11:34;92195.69;;;36.62;19.87
61963;BME280;47927;42.646;23.096;2023-08-17T11:14:00;92207.09;;;35.68;20.56
61963;BME280;47927;42.646;23.096;2023-08-17T11:16:26;92186.97;;;34.29;22.14
61963;BME280;47927;42.646;23.096;2023-08-17T11:18:52;92203.25;;;33.55;22.90
61963;BME280;47927;42.646;23.096;2023-08-17T11:21:17;92190.22;;;34.02;22.99
61963;BME280;47927;42.646;23.096;2023-08-17T11:23:43;92189.03;;;33.49;23.98
61963;BME280;47927;42.646;23.096;2023-08-17T11:26:09;92196.03;;;33.08;23.59
61963;BME280;47927;42.646;23.096;2023-08-17T11:28:35;92188.25;;;32.99;24.25
61963;BME280;47927;42.646;23.096;2023-08-17T11:31:08;92182.22;;;33.18;24.01
61963;BME280;47927;42.646;23.096;2023-08-17T11:33:35;92170.16;;;34.17;23.36
61963;BME280;47927;42.646;23.096;2023-08-17T11:36:02;92162.19;;;34.43;23.43
61963;BME280;47927;42.646;23.096;2023-08-17T11:38:39;92170.47;;;34.32;22.57
61963;BME280;47927;42.646;23.096;2023-08-17T11:41:05;92178.34;;;34.11;22.63
61963;BME280;47927;42.646;23.096;2023-08-17T11:43:33;92175.22;;;32.98;23.69
61963;BME280;47927;42.646;23.096;2023-08-17T11:46:02;92166.31;;;32.78;24.62
61963;BME280;47927;42.646;23.096;2023-08-17T11:48:28;92181.19;;;32.49;25.21
61963;BME280;47927;42.646;23.096;2023-08-17T11:50:54;92178.38;;;32.66;24.77
61963;BME280;47927;42.646;23.096;2023-08-17T11:53:23;92164.63;;;33.35;25.08
61963;BME280;47927;42.646;23.096;2023-08-17T11:55:48;92179.78;;;33.14;26.37
61963;BME280;47927;42.646;23.096;2023-08-17T11:58:14;92180.28;;;32.77;25.68
61963;BME280;47927;42.646;23.096;2023-08-17T12:00:41;92211.34;;;32.48;25.25
61963;BME280;47927;42.646;23.096;2023-08-17T12:03:07;92174.13;;;32.40;25.00
61963;BME280;47927;42.646;23.096;2023-08-17T12:05:33;92180.13;;;32.63;25.25
61963;BME280;47927;42.646;23.096;2023-08-17T12:07:59;92174.78;;;32.58;25.24
61963;BME280;47927;42.646;23.096;2023-08-17T12:10:29;92169.41;;;32.88;24.12
61963;BME280;47927;42.646;23.096;2023-08-17T12:13:00;92165.94;;;32.93;25.77
61963;BME280;47927;42.646;23.096;2023-08-17T12:15:32;92171.34;;;32.57;26.56
61963;BME280;47927;42.646;23.096;2023-08-17T12:17:59;92169.03;;;32.31;28.42
61963;BME280;47927;42.646;23.096;2023-08-17T12:20:25;92170.78;;;32.23;26.84
61963;BME280;47927;42.646;23.096;2023-08-17T12:22:51;92165.44;;;32.06;28.07
61963;BME280;47927;42.646;23.096;2023-08-17T12:25:20;92159.34;;;32.00;27.87
61963;BME280;47927;42.646;23.096;2023-08-17T12:27:46;92156.84;;;32.13;27.41
61963;BME280;47927;42.646;23.096;2023-08-17T12:30:32;92159.66;;;31.79;27.17
61963;BME280;47927;42.646;23.096;2023-08-17T12:32:58;92167.09;;;31.23;29.72
61963;BME280;47927;42.646;23.096;2023-08-17T12:35:25;92166.38;;;31.17;29.65
61963;BME280;47927;42.646;23.096;2023-08-17T12:37:51;92156.38;;;31.12;31.03
61963;BME280;47927;42.646;23.096;2023-08-17T12:40:17;92160.78;;;30.86;31.27
61963;BME280;47927;42.646;23.096;2023-08-17T12:42:43;92160.28;;;30.82;28.65
61963;BME280;47927;42.646;23.096;2023-08-17T12:45:08;92153.44;;;31.04;29.73
61963;BME280;47927;42.646;23.096;2023-08-17T12:47:34;92179.84;;;31.45;29.30
61963;BME280;47927;42.646;23.096;2023-08-17T12:49:59;92168.09;;;31.37;30.81
61963;BME280;47927;42.646;23.096;2023-08-17T12:52:27;92164.31;;;31.90;30.52
61963;BME280;47927;42.646;23.096;2023-08-17T12:54:53;92151.47;;;32.13;29.72
61963;BME280;47927;42.646;23.096;2023-08-17T12:57:18;92170.22;;;31.66;28.46
61963;BME280;47927;42.646;23.096;2023-08-17T12:59:44;92161.31;;;32.05;28.08